Дата Пункты Температура Давл., мм. Влажн., % Ветер Погодные явления
Воздуха Воды Направл. Скорость
07.07.18 09:00 Одесса 25.0 22.0 754 63 С 0 21 ЧАС
07.07.18 06:00 Одесса 25.0 21.0 753 56 С 0 18 ЧАСОВ
07.07.18 03:00 Одесса 27.0 21.0 753 60 Ю 2 15 ЧАСОВ
07.07.18 12:00 Одесса 27.0 21.0 754 38 Ю-В 2 12 ЧАСОВ
07.07.18 09:00 Одесса 25.0 21.0 754 52 С-В 2 09 ЧАСОВ
07.07.18 06:00 Одесса 21.0 21.0 754 71 С-З 1 06 ЧАСОВ
07.07.18 03:00 Одесса 21.0 21.0 754 73 З 2 03 ЧАСА
06.07.18 09:00 Одесса 25.0 21.0 754 61 З 2 21 ЧАС
06.07.18 06:00 Одесса 28.0 21.0 754 45 Ю 1 18 ЧАСОВ
06.07.18 03:00 Одесса 26.0 21.0 754 65 Ю 4 15 ЧАСОВ
06.07.18 12:00 Одесса 25.0 21.0 755 64 Ю-В 3 12 ЧАСОВ
06.07.18 09:00 Одесса 24.0 21.0 755 56 В 1 09 ЧАСОВ
06.07.18 06:00 Одесса 20.0 21.0 755 82 С 0 06 ЧАСОВ
06.07.18 03:00 Одесса 21.0 21.0 754 74 З 2 03 ЧАСА
05.07.18 09:00 Одесса 24.0 21.0 755 61 З 2 21 ЧАС
05.07.18 06:00 Одесса 27.0 22.0 755 40 Ю-З 2 18 ЧАСОВ
05.07.18 03:00 Одесса 25.0 22.0 756 56 Ю 2 15 ЧАСОВ
05.07.18 12:00 Одесса 29.0 21.0 756 40 С 1 12 ЧАСОВ
05.07.18 09:00 Одесса 26.0 21.0 756 50 С-З 1 09 ЧАСОВ
05.07.18 06:00 Одесса 18.0 21.0 756 85 З 2 06 ЧАСОВ
Количество строк
1 2 3 4 5 6 7 8 9 10
Page 4 of 382